sensor_id;sensor_type;location;lat;lon;timestamp;P1;durP1;ratioP1;P2;durP2;ratioP2
6209;SDS011;3138;52.550;13.148;2023-05-16T00:00:04;17.20;;;11.10;;
6209;SDS011;3138;52.550;13.148;2023-05-16T00:02:33;16.63;;;10.17;;
6209;SDS011;3138;52.550;13.148;2023-05-16T00:05:00;12.60;;;11.30;;
6209;SDS011;3138;52.550;13.148;2023-05-16T00:07:28;18.67;;;12.00;;
6209;SDS011;3138;52.550;13.148;2023-05-16T00:09:56;13.90;;;12.53;;
6209;SDS011;3138;52.550;13.148;2023-05-16T00:12:23;19.87;;;10.90;;
6209;SDS011;3138;52.550;13.148;2023-05-16T00:14:50;18.90;;;12.30;;
6209;SDS011;3138;52.550;13.148;2023-05-16T00:17:17;22.37;;;13.47;;
6209;SDS011;3138;52.550;13.148;2023-05-16T00:19:45;28.77;;;14.07;;
6209;SDS011;3138;52.550;13.148;2023-05-16T00:22:12;16.60;;;14.30;;
6209;SDS011;3138;52.550;13.148;2023-05-16T00:24:39;24.40;;;14.73;;
6209;SDS011;3138;52.550;13.148;2023-05-16T00:27:07;18.37;;;14.63;;
6209;SDS011;3138;52.550;13.148;2023-05-16T00:29:34;22.87;;;15.77;;
6209;SDS011;3138;52.550;13.148;2023-05-16T00:32:01;22.10;;;14.63;;
6209;SDS011;3138;52.550;13.148;2023-05-16T00:34:28;29.03;;;16.83;;
6209;SDS011;3138;52.550;13.148;2023-05-16T00:36:55;29.17;;;17.40;;
6209;SDS011;3138;52.550;13.148;2023-05-16T00:39:21;26.27;;;17.87;;
6209;SDS011;3138;52.550;13.148;2023-05-16T00:41:49;33.80;;;20.53;;
6209;SDS011;3138;52.550;13.148;2023-05-16T00:44:17;37.43;;;22.33;;
6209;SDS011;3138;52.550;13.148;2023-05-16T00:46:44;31.90;;;20.60;;
6209;SDS011;3138;52.550;13.148;2023-05-16T00:49:11;33.63;;;21.00;;
6209;SDS011;3138;52.550;13.148;2023-05-16T00:51:38;37.77;;;21.50;;
6209;SDS011;3138;52.550;13.148;2023-05-16T00:54:05;41.97;;;20.10;;
6209;SDS011;3138;52.550;13.148;2023-05-16T00:56:32;29.20;;;19.93;;
6209;SDS011;3138;52.550;13.148;2023-05-16T00:58:59;31.83;;;19.80;;
6209;SDS011;3138;52.550;13.148;2023-05-16T01:01:28;40.07;;;21.73;;
6209;SDS011;3138;52.550;13.148;2023-05-16T01:03:55;29.13;;;21.53;;
6209;SDS011;3138;52.550;13.148;2023-05-16T01:06:22;32.70;;;21.13;;
6209;SDS011;3138;52.550;13.148;2023-05-16T01:08:49;35.60;;;20.63;;
6209;SDS011;3138;52.550;13.148;2023-05-16T01:11:17;28.97;;;21.80;;
6209;SDS011;3138;52.550;13.148;2023-05-16T01:13:52;32.30;;;21.17;;
6209;SDS011;3138;52.550;13.148;2023-05-16T01:16:26;27.70;;;21.87;;
6209;SDS011;3138;52.550;13.148;2023-05-16T01:19:04;31.60;;;21.33;;
6209;SDS011;3138;52.550;13.148;2023-05-16T01:21:41;30.80;;;20.90;;
6209;SDS011;3138;52.550;13.148;2023-05-16T01:24:19;37.93;;;21.90;;
6209;SDS011;3138;52.550;13.148;2023-05-16T01:26:50;31.50;;;19.27;;
6209;SDS011;3138;52.550;13.148;2023-05-16T01:29:17;28.23;;;20.80;;
6209;SDS011;3138;52.550;13.148;2023-05-16T01:31:44;41.87;;;21.67;;
6209;SDS011;3138;52.550;13.148;2023-05-16T01:34:11;28.57;;;19.80;;
6209;SDS011;3138;52.550;13.148;2023-05-16T01:36:39;42.57;;;21.37;;
6209;SDS011;3138;52.550;13.148;2023-05-16T01:39:14;32.30;;;19.87;;
6209;SDS011;3138;52.550;13.148;2023-05-16T01:41:46;30.00;;;20.20;;
6209;SDS011;3138;52.550;13.148;2023-05-16T01:44:24;27.50;;;18.93;;
6209;SDS011;3138;52.550;13.148;2023-05-16T01:46:57;29.03;;;21.47;;
6209;SDS011;3138;52.550;13.148;2023-05-16T01:49:29;37.70;;;19.47;;
6209;SDS011;3138;52.550;13.148;2023-05-16T01:52:00;31.10;;;20.60;;
6209;SDS011;3138;52.550;13.148;2023-05-16T01:54:33;30.57;;;19.50;;
6209;SDS011;3138;52.550;13.148;2023-05-16T01:57:06;27.20;;;19.60;;
6209;SDS011;3138;52.550;13.148;2023-05-16T01:59:34;31.33;;;19.10;;
6209;SDS011;3138;52.550;13.148;2023-05-16T02:02:02;63.13;;;20.97;;
6209;SDS011;3138;52.550;13.148;2023-05-16T02:04:29;26.53;;;19.00;;
6209;SDS011;3138;52.550;13.148;2023-05-16T02:06:56;36.53;;;20.97;;
6209;SDS011;3138;52.550;13.148;2023-05-16T02:09:24;34.13;;;20.30;;
6209;SDS011;3138;52.550;13.148;2023-05-16T02:11:51;34.03;;;20.00;;
6209;SDS011;3138;52.550;13.148;2023-05-16T02:14:19;49.13;;;20.90;;
6209;SDS011;3138;52.550;13.148;2023-05-16T02:16:47;33.70;;;20.07;;
6209;SDS011;3138;52.550;13.148;2023-05-16T02:19:13;28.53;;;18.90;;
6209;SDS011;3138;52.550;13.148;2023-05-16T02:21:40;28.03;;;18.83;;
6209;SDS011;3138;52.550;13.148;2023-05-16T02:24:07;29.63;;;20.30;;
6209;SDS011;3138;52.550;13.148;2023-05-16T02:26:34;47.27;;;20.23;;
6209;SDS011;3138;52.550;13.148;2023-05-16T02:29:01;36.33;;;21.67;;
6209;SDS011;3138;52.550;13.148;2023-05-16T02:31:29;29.80;;;20.27;;
6209;SDS011;3138;52.550;13.148;2023-05-16T02:33:58;30.43;;;20.97;;
6209;SDS011;3138;52.550;13.148;2023-05-16T02:36:25;27.33;;;20.10;;
6209;SDS011;3138;52.550;13.148;2023-05-16T02:38:53;34.13;;;19.90;;
6209;SDS011;3138;52.550;13.148;2023-05-16T02:41:20;28.70;;;21.73;;
6209;SDS011;3138;52.550;13.148;2023-05-16T02:43:47;31.53;;;24.00;;
6209;SDS011;3138;52.550;13.148;2023-05-16T02:46:20;37.23;;;22.80;;
6209;SDS011;3138;52.550;13.148;2023-05-16T02:48:50;40.00;;;22.13;;
6209;SDS011;3138;52.550;13.148;2023-05-16T02:51:18;33.80;;;23.83;;
6209;SDS011;3138;52.550;13.148;2023-05-16T02:53:46;37.00;;;22.80;;
6209;SDS011;3138;52.550;13.148;2023-05-16T02:56:13;30.00;;;21.67;;
6209;SDS011;3138;52.550;13.148;2023-05-16T02:58:40;43.33;;;24.20;;
6209;SDS011;3138;52.550;13.148;2023-05-16T03:01:07;30.40;;;23.53;;
6209;SDS011;3138;52.550;13.148;2023-05-16T03:03:34;36.07;;;24.90;;
6209;SDS011;3138;52.550;13.148;2023-05-16T03:06:03;32.30;;;23.10;;
6209;SDS011;3138;52.550;13.148;2023-05-16T03:08:31;41.30;;;22.40;;
6209;SDS011;3138;52.550;13.148;2023-05-16T03:10:58;39.07;;;22.70;;
6209;SDS011;3138;52.550;13.148;2023-05-16T03:13:24;34.23;;;23.90;;
6209;SDS011;3138;52.550;13.148;2023-05-16T03:15:52;31.80;;;21.43;;
6209;SDS011;3138;52.550;13.148;2023-05-16T03:18:19;38.07;;;23.87;;
6209;SDS011;3138;52.550;13.148;2023-05-16T03:20:46;33.00;;;22.93;;
6209;SDS011;3138;52.550;13.148;2023-05-16T03:23:14;37.20;;;24.03;;
6209;SDS011;3138;52.550;13.148;2023-05-16T03:25:42;47.17;;;24.67;;
6209;SDS011;3138;52.550;13.148;2023-05-16T03:28:10;39.07;;;23.97;;
6209;SDS011;3138;52.550;13.148;2023-05-16T03:30:37;36.63;;;23.83;;
6209;SDS011;3138;52.550;13.148;2023-05-16T03:33:04;39.03;;;24.53;;
6209;SDS011;3138;52.550;13.148;2023-05-16T03:35:31;38.50;;;22.77;;
6209;SDS011;3138;52.550;13.148;2023-05-16T03:37:59;40.00;;;24.83;;
6209;SDS011;3138;52.550;13.148;2023-05-16T03:40:28;35.93;;;24.27;;
6209;SDS011;3138;52.550;13.148;2023-05-16T03:42:55;46.93;;;27.50;;
6209;SDS011;3138;52.550;13.148;2023-05-16T03:45:22;39.13;;;24.97;;
6209;SDS011;3138;52.550;13.148;2023-05-16T03:47:49;57.37;;;25.73;;
6209;SDS011;3138;52.550;13.148;2023-05-16T03:50:16;35.30;;;26.27;;
6209;SDS011;3138;52.550;13.148;2023-05-16T03:52:43;43.50;;;27.20;;
6209;SDS011;3138;52.550;13.148;2023-05-16T03:55:10;41.30;;;24.10;;
6209;SDS011;3138;52.550;13.148;2023-05-16T03:57:41;53.53;;;25.23;;
6209;SDS011;3138;52.550;13.148;2023-05-16T04:00:09;33.23;;;24.73;;
6209;SDS011;3138;52.550;13.148;2023-05-16T04:02:37;40.63;;;25.53;;
6209;SDS011;3138;52.550;13.148;2023-05-16T04:05:06;41.80;;;27.87;;
6209;SDS011;3138;52.550;13.148;2023-05-16T04:07:34;29.60;;;24.20;;
6209;SDS011;3138;52.550;13.148;2023-05-16T04:10:01;43.50;;;27.67;;
6209;SDS011;3138;52.550;13.148;2023-05-16T04:12:28;37.80;;;25.30;;
6209;SDS011;3138;52.550;13.148;2023-05-16T04:14:56;36.30;;;25.20;;
6209;SDS011;3138;52.550;13.148;2023-05-16T04:17:23;48.20;;;26.57;;
6209;SDS011;3138;52.550;13.148;2023-05-16T04:19:50;39.93;;;25.63;;
6209;SDS011;3138;52.550;13.148;2023-05-16T04:22:17;44.23;;;25.10;;
6209;SDS011;3138;52.550;13.148;2023-05-16T04:24:45;39.50;;;24.20;;
6209;SDS011;3138;52.550;13.148;2023-05-16T04:27:12;43.53;;;23.43;;
6209;SDS011;3138;52.550;13.148;2023-05-16T04:29:39;42.87;;;25.40;;
6209;SDS011;3138;52.550;13.148;2023-05-16T04:32:07;41.50;;;24.43;;
6209;SDS011;3138;52.550;13.148;2023-05-16T04:34:35;38.40;;;23.30;;
6209;SDS011;3138;52.550;13.148;2023-05-16T04:37:03;47.17;;;23.60;;
6209;SDS011;3138;52.550;13.148;2023-05-16T04:39:31;53.33;;;25.63;;
6209;SDS011;3138;52.550;13.148;2023-05-16T04:41:58;49.90;;;23.87;;
6209;SDS011;3138;52.550;13.148;2023-05-16T04:44:25;36.13;;;25.10;;
6209;SDS011;3138;52.550;13.148;2023-05-16T04:46:52;35.70;;;24.73;;
6209;SDS011;3138;52.550;13.148;2023-05-16T04:49:20;52.13;;;23.67;;
6209;SDS011;3138;52.550;13.148;2023-05-16T04:51:47;37.47;;;23.00;;
6209;SDS011;3138;52.550;13.148;2023-05-16T04:54:14;49.80;;;23.77;;
6209;SDS011;3138;52.550;13.148;2023-05-16T04:56:41;42.90;;;24.27;;
6209;SDS011;3138;52.550;13.148;2023-05-16T04:59:08;42.63;;;23.63;;
6209;SDS011;3138;52.550;13.148;2023-05-16T05:01:35;48.17;;;26.30;;
6209;SDS011;3138;52.550;13.148;2023-05-16T05:04:02;45.90;;;22.57;;
6209;SDS011;3138;52.550;13.148;2023-05-16T05:06:30;39.97;;;23.10;;
6209;SDS011;3138;52.550;13.148;2023-05-16T05:08:57;30.83;;;23.50;;
6209;SDS011;3138;52.550;13.148;2023-05-16T05:11:23;35.27;;;23.30;;
6209;SDS011;3138;52.550;13.148;2023-05-16T05:13:51;37.87;;;23.17;;
6209;SDS011;3138;52.550;13.148;2023-05-16T05:16:18;36.40;;;23.97;;
6209;SDS011;3138;52.550;13.148;2023-05-16T05:18:45;38.47;;;22.43;;
6209;SDS011;3138;52.550;13.148;2023-05-16T05:21:11;28.10;;;21.17;;
6209;SDS011;3138;52.550;13.148;2023-05-16T05:23:40;30.07;;;18.97;;
6209;SDS011;3138;52.550;13.148;2023-05-16T05:26:06;35.40;;;18.37;;
6209;SDS011;3138;52.550;13.148;2023-05-16T05:28:33;25.33;;;18.47;;
6209;SDS011;3138;52.550;13.148;2023-05-16T05:31:01;32.30;;;20.60;;
6209;SDS011;3138;52.550;13.148;2023-05-16T05:33:29;25.40;;;19.30;;
6209;SDS011;3138;52.550;13.148;2023-05-16T05:35:56;32.43;;;17.93;;
6209;SDS011;3138;52.550;13.148;2023-05-16T05:38:23;35.20;;;18.40;;
6209;SDS011;3138;52.550;13.148;2023-05-16T05:40:51;23.37;;;16.90;;
6209;SDS011;3138;52.550;13.148;2023-05-16T05:43:18;25.93;;;16.53;;
6209;SDS011;3138;52.550;13.148;2023-05-16T05:45:45;25.37;;;16.43;;
6209;SDS011;3138;52.550;13.148;2023-05-16T05:48:12;29.50;;;15.60;;
6209;SDS011;3138;52.550;13.148;2023-05-16T05:50:39;21.93;;;15.67;;
6209;SDS011;3138;52.550;13.148;2023-05-16T05:53:06;21.73;;;16.67;;
6209;SDS011;3138;52.550;13.148;2023-05-16T05:55:32;27.43;;;17.43;;
6209;SDS011;3138;52.550;13.148;2023-05-16T05:58:01;22.50;;;16.53;;
6209;SDS011;3138;52.550;13.148;2023-05-16T06:00:27;20.50;;;15.97;;
6209;SDS011;3138;52.550;13.148;2023-05-16T06:02:54;27.13;;;16.33;;
6209;SDS011;3138;52.550;13.148;2023-05-16T06:05:21;22.00;;;15.63;;
6209;SDS011;3138;52.550;13.148;2023-05-16T06:07:48;35.43;;;13.53;;
6209;SDS011;3138;52.550;13.148;2023-05-16T06:10:15;23.50;;;14.90;;
6209;SDS011;3138;52.550;13.148;2023-05-16T06:12:42;19.67;;;13.83;;
6209;SDS011;3138;52.550;13.148;2023-05-16T06:15:10;19.43;;;14.73;;
6209;SDS011;3138;52.550;13.148;2023-05-16T06:17:37;17.27;;;13.90;;
6209;SDS011;3138;52.550;13.148;2023-05-16T06:20:05;18.87;;;13.03;;
6209;SDS011;3138;52.550;13.148;2023-05-16T06:22:32;13.10;;;11.17;;
6209;SDS011;3138;52.550;13.148;2023-05-16T06:24:59;18.13;;;12.63;;
6209;SDS011;3138;52.550;13.148;2023-05-16T06:27:26;18.40;;;10.30;;
6209;SDS011;3138;52.550;13.148;2023-05-16T06:29:53;18.10;;;10.40;;
6209;SDS011;3138;52.550;13.148;2023-05-16T06:32:22;20.13;;;11.63;;
6209;SDS011;3138;52.550;13.148;2023-05-16T06:34:49;14.30;;;10.57;;
6209;SDS011;3138;52.550;13.148;2023-05-16T06:37:15;20.17;;;9.93;;
6209;SDS011;3138;52.550;13.148;2023-05-16T06:39:42;29.37;;;9.00;;
6209;SDS011;3138;52.550;13.148;2023-05-16T06:42:09;11.70;;;8.80;;
6209;SDS011;3138;52.550;13.148;2023-05-16T06:44:37;15.17;;;9.37;;
6209;SDS011;3138;52.550;13.148;2023-05-16T06:47:03;18.20;;;8.63;;
6209;SDS011;3138;52.550;13.148;2023-05-16T06:49:32;20.47;;;8.33;;
6209;SDS011;3138;52.550;13.148;2023-05-16T06:51:59;29.67;;;8.60;;
6209;SDS011;3138;52.550;13.148;2023-05-16T06:54:26;16.60;;;8.47;;
6209;SDS011;3138;52.550;13.148;2023-05-16T06:56:52;11.00;;;7.63;;
6209;SDS011;3138;52.550;13.148;2023-05-16T06:59:19;19.00;;;8.53;;
6209;SDS011;3138;52.550;13.148;2023-05-16T07:01:46;14.23;;;7.27;;
6209;SDS011;3138;52.550;13.148;2023-05-16T07:04:13;15.60;;;6.90;;
6209;SDS011;3138;52.550;13.148;2023-05-16T07:06:41;15.00;;;7.20;;
6209;SDS011;3138;52.550;13.148;2023-05-16T07:09:08;21.60;;;6.07;;
6209;SDS011;3138;52.550;13.148;2023-05-16T07:11:35;13.27;;;5.83;;
6209;SDS011;3138;52.550;13.148;2023-05-16T07:14:02;17.03;;;6.23;;
6209;SDS011;3138;52.550;13.148;2023-05-16T07:16:29;10.70;;;6.10;;
6209;SDS011;3138;52.550;13.148;2023-05-16T07:18:56;24.23;;;8.40;;
6209;SDS011;3138;52.550;13.148;2023-05-16T07:21:23;7.63;;;4.80;;
6209;SDS011;3138;52.550;13.148;2023-05-16T07:23:51;5.20;;;4.70;;
6209;SDS011;3138;52.550;13.148;2023-05-16T07:26:18;7.07;;;5.07;;
6209;SDS011;3138;52.550;13.148;2023-05-16T07:28:47;11.93;;;5.60;;
6209;SDS011;3138;52.550;13.148;2023-05-16T07:31:14;13.13;;;6.20;;
6209;SDS011;3138;52.550;13.148;2023-05-16T07:33:41;4.43;;;4.13;;
6209;SDS011;3138;52.550;13.148;2023-05-16T07:36:09;4.83;;;4.43;;
6209;SDS011;3138;52.550;13.148;2023-05-16T07:38:36;7.20;;;4.57;;
6209;SDS011;3138;52.550;13.148;2023-05-16T07:41:04;9.20;;;4.37;;
6209;SDS011;3138;52.550;13.148;2023-05-16T07:43:31;5.07;;;3.43;;
6209;SDS011;3138;52.550;13.148;2023-05-16T07:45:59;13.53;;;5.40;;
6209;SDS011;3138;52.550;13.148;2023-05-16T07:48:26;7.03;;;5.20;;
6209;SDS011;3138;52.550;13.148;2023-05-16T07:50:53;5.93;;;4.93;;
6209;SDS011;3138;52.550;13.148;2023-05-16T07:53:20;7.20;;;4.67;;
6209;SDS011;3138;52.550;13.148;2023-05-16T07:55:47;8.40;;;5.63;;
6209;SDS011;3138;52.550;13.148;2023-05-16T07:58:15;7.53;;;5.70;;
6209;SDS011;3138;52.550;13.148;2023-05-16T08:00:42;7.87;;;5.37;;
6209;SDS011;3138;52.550;13.148;2023-05-16T08:03:09;9.40;;;4.60;;
6209;SDS011;3138;52.550;13.148;2023-05-16T08:05:36;10.00;;;5.13;;
6209;SDS011;3138;52.550;13.148;2023-05-16T08:08:03;7.07;;;4.57;;
6209;SDS011;3138;52.550;13.148;2023-05-16T08:10:30;6.00;;;4.63;;
6209;SDS011;3138;52.550;13.148;2023-05-16T08:12:57;4.20;;;3.83;;
6209;SDS011;3138;52.550;13.148;2023-05-16T08:15:26;6.73;;;4.10;;
6209;SDS011;3138;52.550;13.148;2023-05-16T08:17:55;6.30;;;4.20;;
6209;SDS011;3138;52.550;13.148;2023-05-16T08:20:23;4.13;;;3.50;;
6209;SDS011;3138;52.550;13.148;2023-05-16T08:22:50;13.50;;;3.97;;
6209;SDS011;3138;52.550;13.148;2023-05-16T08:25:17;3.80;;;3.40;;
6209;SDS011;3138;52.550;13.148;2023-05-16T08:27:44;6.30;;;3.27;;
6209;SDS011;3138;52.550;13.148;2023-05-16T08:30:11;9.40;;;4.27;;
6209;SDS011;3138;52.550;13.148;2023-05-16T08:32:40;9.10;;;2.60;;
6209;SDS011;3138;52.550;13.148;2023-05-16T08:35:07;9.83;;;3.20;;
6209;SDS011;3138;52.550;13.148;2023-05-16T08:37:35;5.20;;;3.30;;
6209;SDS011;3138;52.550;13.148;2023-05-16T08:40:02;6.13;;;3.23;;
6209;SDS011;3138;52.550;13.148;2023-05-16T08:42:32;4.27;;;2.73;;
6209;SDS011;3138;52.550;13.148;2023-05-16T08:45:00;6.27;;;3.63;;
6209;SDS011;3138;52.550;13.148;2023-05-16T08:47:27;5.80;;;2.53;;
6209;SDS011;3138;52.550;13.148;2023-05-16T08:49:59;11.97;;;2.60;;
6209;SDS011;3138;52.550;13.148;2023-05-16T08:52:29;11.23;;;3.47;;
6209;SDS011;3138;52.550;13.148;2023-05-16T08:54:58;10.30;;;3.43;;
6209;SDS011;3138;52.550;13.148;2023-05-16T08:57:29;2.73;;;2.40;;
6209;SDS011;3138;52.550;13.148;2023-05-16T08:59:58;6.67;;;2.70;;
6209;SDS011;3138;52.550;13.148;2023-05-16T09:02:26;15.63;;;2.93;;
6209;SDS011;3138;52.550;13.148;2023-05-16T09:04:53;18.80;;;2.33;;
6209;SDS011;3138;52.550;13.148;2023-05-16T09:07:23;9.30;;;3.00;;
6209;SDS011;3138;52.550;13.148;2023-05-16T09:09:50;4.90;;;2.23;;
6209;SDS011;3138;52.550;13.148;2023-05-16T09:12:18;13.90;;;2.37;;
6209;SDS011;3138;52.550;13.148;2023-05-16T09:14:45;11.10;;;2.77;;
6209;SDS011;3138;52.550;13.148;2023-05-16T09:17:12;4.87;;;1.87;;
6209;SDS011;3138;52.550;13.148;2023-05-16T09:19:40;13.87;;;2.60;;
6209;SDS011;3138;52.550;13.148;2023-05-16T09:22:08;15.43;;;3.27;;
6209;SDS011;3138;52.550;13.148;2023-05-16T09:24:39;10.80;;;2.80;;
6209;SDS011;3138;52.550;13.148;2023-05-16T09:27:06;13.30;;;3.07;;
6209;SDS011;3138;52.550;13.148;2023-05-16T09:29:34;25.47;;;4.03;;
6209;SDS011;3138;52.550;13.148;2023-05-16T09:32:04;14.20;;;4.30;;
6209;SDS011;3138;52.550;13.148;2023-05-16T09:34:36;11.73;;;3.00;;
6209;SDS011;3138;52.550;13.148;2023-05-16T09:37:04;7.90;;;2.67;;
6209;SDS011;3138;52.550;13.148;2023-05-16T09:39:31;18.53;;;3.43;;
6209;SDS011;3138;52.550;13.148;2023-05-16T09:41:59;6.80;;;2.37;;
6209;SDS011;3138;52.550;13.148;2023-05-16T09:44:27;7.90;;;3.13;;
6209;SDS011;3138;52.550;13.148;2023-05-16T09:46:56;7.83;;;2.67;;
6209;SDS011;3138;52.550;13.148;2023-05-16T09:49:23;11.30;;;2.97;;
6209;SDS011;3138;52.550;13.148;2023-05-16T09:51:51;18.40;;;2.87;;
6209;SDS011;3138;52.550;13.148;2023-05-16T09:54:27;12.33;;;3.67;;
6209;SDS011;3138;52.550;13.148;2023-05-16T09:56:56;11.97;;;2.83;;
6209;SDS011;3138;52.550;13.148;2023-05-16T09:59:27;7.60;;;3.27;;
6209;SDS011;3138;52.550;13.148;2023-05-16T10:01:54;10.30;;;2.80;;
6209;SDS011;3138;52.550;13.148;2023-05-16T10:04:22;25.27;;;3.70;;
6209;SDS011;3138;52.550;13.148;2023-05-16T10:06:49;31.60;;;3.03;;
6209;SDS011;3138;52.550;13.148;2023-05-16T10:09:17;8.03;;;3.67;;
6209;SDS011;3138;52.550;13.148;2023-05-16T10:11:44;13.67;;;2.90;;
6209;SDS011;3138;52.550;13.148;2023-05-16T10:14:13;11.20;;;2.90;;
6209;SDS011;3138;52.550;13.148;2023-05-16T10:16:45;10.50;;;2.40;;
6209;SDS011;3138;52.550;13.148;2023-05-16T10:19:14;7.57;;;2.47;;
6209;SDS011;3138;52.550;13.148;2023-05-16T10:21:44;19.40;;;3.03;;
6209;SDS011;3138;52.550;13.148;2023-05-16T10:24:17;8.90;;;2.70;;
6209;SDS011;3138;52.550;13.148;2023-05-16T10:26:49;15.27;;;3.93;;
6209;SDS011;3138;52.550;13.148;2023-05-16T10:29:17;15.60;;;3.40;;
6209;SDS011;3138;52.550;13.148;2023-05-16T10:31:47;24.30;;;5.13;;
6209;SDS011;3138;52.550;13.148;2023-05-16T10:34:14;35.50;;;3.37;;
6209;SDS011;3138;52.550;13.148;2023-05-16T10:36:41;10.90;;;3.33;;
6209;SDS011;3138;52.550;13.148;2023-05-16T10:39:09;23.30;;;4.90;;
6209;SDS011;3138;52.550;13.148;2023-05-16T10:41:37;23.10;;;3.47;;
6209;SDS011;3138;52.550;13.148;2023-05-16T10:44:08;28.10;;;3.60;;
6209;SDS011;3138;52.550;13.148;2023-05-16T10:46:40;19.77;;;3.00;;
6209;SDS011;3138;52.550;13.148;2023-05-16T10:49:21;18.87;;;3.37;;
6209;SDS011;3138;52.550;13.148;2023-05-16T10:52:00;13.33;;;3.07;;
6209;SDS011;3138;52.550;13.148;2023-05-16T10:54:35;12.00;;;2.53;;
6209;SDS011;3138;52.550;13.148;2023-05-16T10:57:04;11.00;;;2.80;;
6209;SDS011;3138;52.550;13.148;2023-05-16T10:59:39;13.93;;;4.00;;
6209;SDS011;3138;52.550;13.148;2023-05-16T11:02:20;27.80;;;3.40;;
6209;SDS011;3138;52.550;13.148;2023-05-16T11:04:53;10.80;;;3.03;;
6209;SDS011;3138;52.550;13.148;2023-05-16T11:07:21;27.93;;;3.23;;
6209;SDS011;3138;52.550;13.148;2023-05-16T11:10:00;10.57;;;2.70;;
6209;SDS011;3138;52.550;13.148;2023-05-16T11:12:36;12.40;;;2.70;;
6209;SDS011;3138;52.550;13.148;2023-05-16T11:18:02;15.63;;;2.90;;
6209;SDS011;3138;52.550;13.148;2023-05-16T11:20:35;17.03;;;2.27;;
6209;SDS011;3138;52.550;13.148;2023-05-16T11:23:18;14.27;;;2.37;;
6209;SDS011;3138;52.550;13.148;2023-05-16T11:25:47;17.07;;;3.10;;
6209;SDS011;3138;52.550;13.148;2023-05-16T11:28:20;18.23;;;2.80;;
6209;SDS011;3138;52.550;13.148;2023-05-16T11:30:49;7.53;;;2.50;;
6209;SDS011;3138;52.550;13.148;2023-05-16T11:33:19;15.67;;;3.83;;
6209;SDS011;3138;52.550;13.148;2023-05-16T11:36:01;14.23;;;3.37;;
6209;SDS011;3138;52.550;13.148;2023-05-16T11:38:29;11.03;;;3.20;;
6209;SDS011;3138;52.550;13.148;2023-05-16T11:41:03;19.77;;;3.70;;
6209;SDS011;3138;52.550;13.148;2023-05-16T11:43:36;16.37;;;3.30;;
6209;SDS011;3138;52.550;13.148;2023-05-16T11:46:04;19.53;;;2.93;;
6209;SDS011;3138;52.550;13.148;2023-05-16T11:48:32;22.63;;;2.87;;
6209;SDS011;3138;52.550;13.148;2023-05-16T11:50:58;10.57;;;2.23;;
6209;SDS011;3138;52.550;13.148;2023-05-16T11:53:27;17.47;;;3.80;;
6209;SDS011;3138;52.550;13.148;2023-05-16T11:55:54;10.40;;;2.43;;
6209;SDS011;3138;52.550;13.148;2023-05-16T11:58:24;14.33;;;2.43;;
6209;SDS011;3138;52.550;13.148;2023-05-16T12:00:51;9.37;;;2.20;;
6209;SDS011;3138;52.550;13.148;2023-05-16T12:03:18;15.83;;;3.47;;
6209;SDS011;3138;52.550;13.148;2023-05-16T12:05:50;12.77;;;2.77;;
6209;SDS011;3138;52.550;13.148;2023-05-16T12:08:19;7.17;;;2.13;;
6209;SDS011;3138;52.550;13.148;2023-05-16T12:10:48;14.40;;;2.30;;
6209;SDS011;3138;52.550;13.148;2023-05-16T12:13:16;15.00;;;3.30;;
6209;SDS011;3138;52.550;13.148;2023-05-16T12:15:44;11.67;;;2.20;;
6209;SDS011;3138;52.550;13.148;2023-05-16T12:18:11;52.93;;;3.50;;
6209;SDS011;3138;52.550;13.148;2023-05-16T12:20:38;23.57;;;2.53;;
6209;SDS011;3138;52.550;13.148;2023-05-16T12:23:09;13.80;;;2.23;;
6209;SDS011;3138;52.550;13.148;2023-05-16T12:25:38;21.10;;;3.20;;
6209;SDS011;3138;52.550;13.148;2023-05-16T12:28:08;19.47;;;3.63;;
6209;SDS011;3138;52.550;13.148;2023-05-16T12:30:38;20.30;;;3.10;;
6209;SDS011;3138;52.550;13.148;2023-05-16T12:33:07;12.83;;;2.70;;
6209;SDS011;3138;52.550;13.148;2023-05-16T12:35:36;14.40;;;2.07;;
6209;SDS011;3138;52.550;13.148;2023-05-16T12:38:04;14.67;;;2.37;;
6209;SDS011;3138;52.550;13.148;2023-05-16T12:40:32;24.37;;;2.70;;
6209;SDS011;3138;52.550;13.148;2023-05-16T12:43:03;12.47;;;2.70;;
6209;SDS011;3138;52.550;13.148;2023-05-16T12:45:31;12.87;;;2.17;;
6209;SDS011;3138;52.550;13.148;2023-05-16T12:48:03;13.90;;;3.43;;
6209;SDS011;3138;52.550;13.148;2023-05-16T12:50:31;26.33;;;3.03;;
6209;SDS011;3138;52.550;13.148;2023-05-16T12:52:59;15.93;;;2.80;;
6209;SDS011;3138;52.550;13.148;2023-05-16T12:55:26;19.30;;;2.30;;
6209;SDS011;3138;52.550;13.148;2023-05-16T12:57:54;11.60;;;3.20;;
6209;SDS011;3138;52.550;13.148;2023-05-16T13:00:23;8.27;;;2.53;;
6209;SDS011;3138;52.550;13.148;2023-05-16T13:02:50;20.97;;;3.10;;
6209;SDS011;3138;52.550;13.148;2023-05-16T13:05:17;11.47;;;2.40;;
6209;SDS011;3138;52.550;13.148;2023-05-16T13:07:46;18.70;;;2.60;;
6209;SDS011;3138;52.550;13.148;2023-05-16T13:10:12;15.70;;;3.10;;
6209;SDS011;3138;52.550;13.148;2023-05-16T13:12:39;20.50;;;2.80;;
6209;SDS011;3138;52.550;13.148;2023-05-16T13:15:07;23.87;;;3.03;;
6209;SDS011;3138;52.550;13.148;2023-05-16T13:17:37;15.93;;;2.07;;
6209;SDS011;3138;52.550;13.148;2023-05-16T13:20:05;16.70;;;2.23;;
6209;SDS011;3138;52.550;13.148;2023-05-16T13:22:34;12.50;;;2.63;;
6209;SDS011;3138;52.550;13.148;2023-05-16T13:25:01;18.90;;;2.93;;
6209;SDS011;3138;52.550;13.148;2023-05-16T13:27:28;9.70;;;3.07;;
6209;SDS011;3138;52.550;13.148;2023-05-16T13:29:55;8.37;;;2.43;;
6209;SDS011;3138;52.550;13.148;2023-05-16T13:32:22;10.40;;;2.27;;
6209;SDS011;3138;52.550;13.148;2023-05-16T13:34:50;9.00;;;2.60;;
6209;SDS011;3138;52.550;13.148;2023-05-16T13:37:18;9.10;;;2.47;;
6209;SDS011;3138;52.550;13.148;2023-05-16T13:39:45;12.47;;;2.93;;
6209;SDS011;3138;52.550;13.148;2023-05-16T13:42:12;12.13;;;2.47;;
6209;SDS011;3138;52.550;13.148;2023-05-16T13:44:39;5.33;;;2.00;;
6209;SDS011;3138;52.550;13.148;2023-05-16T13:47:06;5.83;;;1.90;;
6209;SDS011;3138;52.550;13.148;2023-05-16T13:49:33;11.53;;;1.73;;
6209;SDS011;3138;52.550;13.148;2023-05-16T13:52:03;7.17;;;1.47;;
6209;SDS011;3138;52.550;13.148;2023-05-16T13:54:30;10.63;;;2.60;;
6209;SDS011;3138;52.550;13.148;2023-05-16T13:56:57;8.93;;;1.87;;
6209;SDS011;3138;52.550;13.148;2023-05-16T13:59:25;8.73;;;2.00;;
6209;SDS011;3138;52.550;13.148;2023-05-16T14:01:52;15.97;;;2.17;;
6209;SDS011;3138;52.550;13.148;2023-05-16T14:04:20;6.07;;;2.57;;
6209;SDS011;3138;52.550;13.148;2023-05-16T14:06:46;2.50;;;1.00;;
6209;SDS011;3138;52.550;13.148;2023-05-16T14:09:15;18.93;;;2.17;;
6209;SDS011;3138;52.550;13.148;2023-05-16T14:11:42;19.03;;;2.43;;
6209;SDS011;3138;52.550;13.148;2023-05-16T14:14:09;9.87;;;2.13;;
6209;SDS011;3138;52.550;13.148;2023-05-16T14:16:39;9.67;;;2.07;;
6209;SDS011;3138;52.550;13.148;2023-05-16T14:19:09;8.73;;;2.50;;
6209;SDS011;3138;52.550;13.148;2023-05-16T14:21:36;7.50;;;1.70;;
6209;SDS011;3138;52.550;13.148;2023-05-16T14:24:03;15.90;;;1.80;;
6209;SDS011;3138;52.550;13.148;2023-05-16T14:26:31;16.33;;;2.00;;
6209;SDS011;3138;52.550;13.148;2023-05-16T14:28:58;9.23;;;2.13;;
6209;SDS011;3138;52.550;13.148;2023-05-16T14:31:25;7.33;;;1.97;;
6209;SDS011;3138;52.550;13.148;2023-05-16T14:33:52;11.17;;;2.03;;
6209;SDS011;3138;52.550;13.148;2023-05-16T14:36:19;10.63;;;1.83;;
6209;SDS011;3138;52.550;13.148;2023-05-16T14:38:46;21.10;;;2.50;;
6209;SDS011;3138;52.550;13.148;2023-05-16T14:41:13;8.13;;;2.60;;
6209;SDS011;3138;52.550;13.148;2023-05-16T14:43:42;17.00;;;2.50;;
6209;SDS011;3138;52.550;13.148;2023-05-16T14:46:10;4.87;;;1.70;;
6209;SDS011;3138;52.550;13.148;2023-05-16T14:48:36;6.83;;;1.60;;
6209;SDS011;3138;52.550;13.148;2023-05-16T14:51:03;7.30;;;1.90;;
6209;SDS011;3138;52.550;13.148;2023-05-16T14:53:31;2.97;;;1.37;;